sensor_id;sensor_type;location;lat;lon;timestamp;P1;durP1;ratioP1;P2;durP2;ratioP2
7989;SDS011;4040;42.848;23.034;2022-10-04T00:01:19;4.70;;;2.50;;
7989;SDS011;4040;42.848;23.034;2022-10-04T00:07:15;4.20;;;2.73;;
7989;SDS011;4040;42.848;23.034;2022-10-04T00:13:13;2.10;;;1.70;;
7989;SDS011;4040;42.848;23.034;2022-10-04T00:19:21;2.30;;;1.87;;
7989;SDS011;4040;42.848;23.034;2022-10-04T00:25:14;1.70;;;1.60;;
7989;SDS011;4040;42.848;23.034;2022-10-04T00:37:15;1.73;;;1.63;;
7989;SDS011;4040;42.848;23.034;2022-10-04T00:43:05;1.70;;;1.60;;
7989;SDS011;4040;42.848;23.034;2022-10-04T00:48:59;1.63;;;1.53;;
7989;SDS011;4040;42.848;23.034;2022-10-04T00:54:52;3.63;;;2.30;;
7989;SDS011;4040;42.848;23.034;2022-10-04T01:00:43;2.23;;;1.83;;
7989;SDS011;4040;42.848;23.034;2022-10-04T01:06:46;1.73;;;1.63;;
7989;SDS011;4040;42.848;23.034;2022-10-04T01:12:37;1.40;;;1.30;;
7989;SDS011;4040;42.848;23.034;2022-10-04T01:18:31;2.37;;;1.57;;
7989;SDS011;4040;42.848;23.034;2022-10-04T01:24:22;2.23;;;1.67;;
7989;SDS011;4040;42.848;23.034;2022-10-04T01:30:12;1.70;;;1.50;;
7989;SDS011;4040;42.848;23.034;2022-10-04T01:36:03;1.97;;;1.80;;
7989;SDS011;4040;42.848;23.034;2022-10-04T01:41:54;2.03;;;1.70;;
7989;SDS011;4040;42.848;23.034;2022-10-04T01:47:48;1.67;;;1.43;;
7989;SDS011;4040;42.848;23.034;2022-10-04T01:53:43;2.13;;;1.60;;
7989;SDS011;4040;42.848;23.034;2022-10-04T01:59:38;1.43;;;1.33;;
7989;SDS011;4040;42.848;23.034;2022-10-04T02:05:32;1.17;;;1.07;;
7989;SDS011;4040;42.848;23.034;2022-10-04T02:11:23;2.33;;;1.53;;
7989;SDS011;4040;42.848;23.034;2022-10-04T02:17:17;1.40;;;1.30;;
7989;SDS011;4040;42.848;23.034;2022-10-04T02:23:09;1.60;;;1.43;;
7989;SDS011;4040;42.848;23.034;2022-10-04T02:28:59;1.60;;;1.50;;
7989;SDS011;4040;42.848;23.034;2022-10-04T02:34:49;2.03;;;1.70;;
7989;SDS011;4040;42.848;23.034;2022-10-04T02:40:43;4.10;;;2.20;;
7989;SDS011;4040;42.848;23.034;2022-10-04T02:46:40;2.77;;;2.40;;
7989;SDS011;4040;42.848;23.034;2022-10-04T02:52:35;1.80;;;1.70;;
7989;SDS011;4040;42.848;23.034;2022-10-04T02:58:29;2.40;;;1.90;;
7989;SDS011;4040;42.848;23.034;2022-10-04T03:04:20;2.00;;;1.90;;
7989;SDS011;4040;42.848;23.034;2022-10-04T03:10:12;1.67;;;1.57;;
7989;SDS011;4040;42.848;23.034;2022-10-04T03:16:01;2.23;;;2.03;;
7989;SDS011;4040;42.848;23.034;2022-10-04T03:21:51;2.70;;;2.07;;
7989;SDS011;4040;42.848;23.034;2022-10-04T03:27:44;2.00;;;1.83;;
7989;SDS011;4040;42.848;23.034;2022-10-04T03:33:33;2.20;;;1.70;;
7989;SDS011;4040;42.848;23.034;2022-10-04T03:39:25;1.47;;;1.30;;
7989;SDS011;4040;42.848;23.034;2022-10-04T03:45:17;2.00;;;1.80;;
7989;SDS011;4040;42.848;23.034;2022-10-04T03:51:09;2.13;;;1.80;;
7989;SDS011;4040;42.848;23.034;2022-10-04T03:57:03;2.30;;;1.83;;
7989;SDS011;4040;42.848;23.034;2022-10-04T04:02:55;2.27;;;1.77;;
7989;SDS011;4040;42.848;23.034;2022-10-04T04:12:59;1.40;;;1.30;;
7989;SDS011;4040;42.848;23.034;2022-10-04T04:18:52;1.70;;;1.60;;
7989;SDS011;4040;42.848;23.034;2022-10-04T04:24:46;2.03;;;1.70;;
7989;SDS011;4040;42.848;23.034;2022-10-04T04:30:36;1.70;;;1.60;;
7989;SDS011;4040;42.848;23.034;2022-10-04T04:36:29;2.40;;;2.20;;
7989;SDS011;4040;42.848;23.034;2022-10-04T04:42:19;2.10;;;1.90;;
7989;SDS011;4040;42.848;23.034;2022-10-04T04:48:13;2.37;;;2.10;;
7989;SDS011;4040;42.848;23.034;2022-10-04T04:54:06;1.70;;;1.60;;
7989;SDS011;4040;42.848;23.034;2022-10-04T04:59:56;3.17;;;2.40;;
7989;SDS011;4040;42.848;23.034;2022-10-04T05:05:46;2.37;;;2.10;;
7989;SDS011;4040;42.848;23.034;2022-10-04T05:15:59;4.30;;;2.73;;
7989;SDS011;4040;42.848;23.034;2022-10-04T05:21:50;4.37;;;3.87;;
7989;SDS011;4040;42.848;23.034;2022-10-04T05:27:41;6.17;;;4.33;;
7989;SDS011;4040;42.848;23.034;2022-10-04T05:33:37;2.87;;;2.53;;
7989;SDS011;4040;42.848;23.034;2022-10-04T05:39:32;2.17;;;1.80;;
7989;SDS011;4040;42.848;23.034;2022-10-04T05:45:29;2.23;;;1.90;;
7989;SDS011;4040;42.848;23.034;2022-10-04T05:51:21;2.97;;;1.90;;
7989;SDS011;4040;42.848;23.034;2022-10-04T05:57:19;1.50;;;1.40;;
7989;SDS011;4040;42.848;23.034;2022-10-04T06:03:27;2.45;;;2.05;;
7989;SDS011;4040;42.848;23.034;2022-10-04T06:09:40;1.92;;;1.40;;
7989;SDS011;4040;42.848;23.034;2022-10-04T06:15:45;2.00;;;1.58;;
7989;SDS011;4040;42.848;23.034;2022-10-04T06:21:46;4.03;;;1.95;;
7989;SDS011;4040;42.848;23.034;2022-10-04T06:27:55;2.28;;;1.30;;
7989;SDS011;4040;42.848;23.034;2022-10-04T06:33:58;1.92;;;1.30;;
7989;SDS011;4040;42.848;23.034;2022-10-04T06:46:37;1.20;;;1.10;;
7989;SDS011;4040;42.848;23.034;2022-10-04T06:58:55;2.65;;;1.45;;
7989;SDS011;4040;42.848;23.034;2022-10-04T07:05:01;1.35;;;1.20;;
7989;SDS011;4040;42.848;23.034;2022-10-04T07:11:00;1.58;;;1.48;;
7989;SDS011;4040;42.848;23.034;2022-10-04T07:16:54;1.75;;;0.90;;
7989;SDS011;4040;42.848;23.034;2022-10-04T07:22:48;1.80;;;1.30;;
7989;SDS011;4040;42.848;23.034;2022-10-04T07:28:43;2.45;;;1.30;;
7989;SDS011;4040;42.848;23.034;2022-10-04T07:34:52;2.30;;;1.23;;
7989;SDS011;4040;42.848;23.034;2022-10-04T07:40:55;3.00;;;1.52;;
7989;SDS011;4040;42.848;23.034;2022-10-04T07:46:51;2.03;;;1.50;;
7989;SDS011;4040;42.848;23.034;2022-10-04T07:52:47;1.35;;;1.00;;
7989;SDS011;4040;42.848;23.034;2022-10-04T07:58:43;1.35;;;1.25;;
7989;SDS011;4040;42.848;23.034;2022-10-04T08:04:38;4.13;;;1.70;;
7989;SDS011;4040;42.848;23.034;2022-10-04T08:10:35;3.85;;;1.95;;
7989;SDS011;4040;42.848;23.034;2022-10-04T08:16:35;1.65;;;1.30;;
7989;SDS011;4040;42.848;23.034;2022-10-04T08:22:39;3.20;;;1.67;;
7989;SDS011;4040;42.848;23.034;2022-10-04T08:28:43;0.98;;;0.98;;
7989;SDS011;4040;42.848;23.034;2022-10-04T08:35:04;1.90;;;1.20;;
7989;SDS011;4040;42.848;23.034;2022-10-04T08:41:23;3.03;;;1.30;;
7989;SDS011;4040;42.848;23.034;2022-10-04T08:54:10;3.10;;;1.50;;
7989;SDS011;4040;42.848;23.034;2022-10-04T09:00:22;1.63;;;1.50;;
7989;SDS011;4040;42.848;23.034;2022-10-04T09:06:22;1.90;;;1.60;;
7989;SDS011;4040;42.848;23.034;2022-10-04T09:16:15;1.55;;;1.30;;
7989;SDS011;4040;42.848;23.034;2022-10-04T09:22:16;1.40;;;1.30;;
7989;SDS011;4040;42.848;23.034;2022-10-04T09:34:50;1.77;;;1.40;;
7989;SDS011;4040;42.848;23.034;2022-10-04T09:47:26;2.75;;;2.00;;
7989;SDS011;4040;42.848;23.034;2022-10-04T10:15:51;1.60;;;1.50;;
7989;SDS011;4040;42.848;23.034;2022-10-04T10:21:49;6.18;;;1.77;;
7989;SDS011;4040;42.848;23.034;2022-10-04T10:28:10;2.60;;;1.75;;
7989;SDS011;4040;42.848;23.034;2022-10-04T10:34:43;1.83;;;1.65;;
7989;SDS011;4040;42.848;23.034;2022-10-04T10:41:11;10.00;;;4.90;;
7989;SDS011;4040;42.848;23.034;2022-10-04T10:47:20;4.67;;;3.20;;
7989;SDS011;4040;42.848;23.034;2022-10-04T10:53:25;3.97;;;2.60;;
7989;SDS011;4040;42.848;23.034;2022-10-04T10:59:57;3.03;;;2.13;;
7989;SDS011;4040;42.848;23.034;2022-10-04T11:16:01;1.77;;;1.67;;
7989;SDS011;4040;42.848;23.034;2022-10-04T11:22:15;3.15;;;1.83;;
7989;SDS011;4040;42.848;23.034;2022-10-04T11:28:47;1.67;;;1.58;;
7989;SDS011;4040;42.848;23.034;2022-10-04T11:41:13;2.10;;;1.90;;
7989;SDS011;4040;42.848;23.034;2022-10-04T11:47:10;2.10;;;1.90;;
7989;SDS011;4040;42.848;23.034;2022-10-04T11:53:18;2.45;;;1.90;;
7989;SDS011;4040;42.848;23.034;2022-10-04T11:59:32;2.45;;;1.92;;
7989;SDS011;4040;42.848;23.034;2022-10-04T12:05:37;1.75;;;1.65;;
7989;SDS011;4040;42.848;23.034;2022-10-04T12:11:46;1.73;;;1.63;;
7989;SDS011;4040;42.848;23.034;2022-10-04T12:24:49;1.67;;;1.58;;
7989;SDS011;4040;42.848;23.034;2022-10-04T12:37:11;1.70;;;1.60;;
7989;SDS011;4040;42.848;23.034;2022-10-04T12:43:10;1.80;;;1.70;;
7989;SDS011;4040;42.848;23.034;2022-10-04T12:49:07;2.33;;;2.13;;
7989;SDS011;4040;42.848;23.034;2022-10-04T12:55:09;1.90;;;1.80;;
7989;SDS011;4040;42.848;23.034;2022-10-04T13:01:24;2.10;;;1.60;;
7989;SDS011;4040;42.848;23.034;2022-10-04T13:07:23;3.33;;;2.13;;
7989;SDS011;4040;42.848;23.034;2022-10-04T13:17:09;2.17;;;1.70;;
7989;SDS011;4040;42.848;23.034;2022-10-04T13:23:06;2.53;;;2.27;;
7989;SDS011;4040;42.848;23.034;2022-10-04T13:29:02;5.00;;;2.70;;
7989;SDS011;4040;42.848;23.034;2022-10-04T13:35:02;2.20;;;1.77;;
7989;SDS011;4040;42.848;23.034;2022-10-04T13:41:03;2.63;;;2.43;;
7989;SDS011;4040;42.848;23.034;2022-10-04T13:47:20;6.05;;;2.28;;
7989;SDS011;4040;42.848;23.034;2022-10-04T13:53:31;2.17;;;1.97;;
7989;SDS011;4040;42.848;23.034;2022-10-04T13:59:46;3.13;;;2.10;;
7989;SDS011;4040;42.848;23.034;2022-10-04T14:18:43;2.77;;;2.27;;
7989;SDS011;4040;42.848;23.034;2022-10-04T14:31:12;3.37;;;2.93;;
7989;SDS011;4040;42.848;23.034;2022-10-04T14:50:32;4.30;;;3.10;;
7989;SDS011;4040;42.848;23.034;2022-10-04T14:56:41;3.90;;;2.90;;
7989;SDS011;4040;42.848;23.034;2022-10-04T15:03:04;1.93;;;1.80;;
7989;SDS011;4040;42.848;23.034;2022-10-04T15:09:15;1.80;;;1.60;;
7989;SDS011;4040;42.848;23.034;2022-10-04T15:19:23;6.50;;;3.97;;
7989;SDS011;4040;42.848;23.034;2022-10-04T15:31:28;3.30;;;2.23;;
7989;SDS011;4040;42.848;23.034;2022-10-04T15:37:23;4.43;;;2.50;;
7989;SDS011;4040;42.848;23.034;2022-10-04T15:43:23;3.67;;;2.63;;
7989;SDS011;4040;42.848;23.034;2022-10-04T15:49:19;3.20;;;2.43;;
7989;SDS011;4040;42.848;23.034;2022-10-04T15:55:20;5.07;;;2.80;;
7989;SDS011;4040;42.848;23.034;2022-10-04T16:01:18;4.87;;;3.63;;
7989;SDS011;4040;42.848;23.034;2022-10-04T16:07:37;16.93;;;8.73;;
7989;SDS011;4040;42.848;23.034;2022-10-04T16:13:43;5.23;;;3.67;;
7989;SDS011;4040;42.848;23.034;2022-10-04T16:32:47;17.13;;;9.73;;
7989;SDS011;4040;42.848;23.034;2022-10-04T16:38:51;19.80;;;10.80;;
7989;SDS011;4040;42.848;23.034;2022-10-04T16:45:25;17.73;;;10.80;;
7989;SDS011;4040;42.848;23.034;2022-10-04T16:51:38;10.27;;;6.43;;
7989;SDS011;4040;42.848;23.034;2022-10-04T16:57:41;16.97;;;7.53;;
7989;SDS011;4040;42.848;23.034;2022-10-04T17:03:30;20.93;;;10.80;;
7989;SDS011;4040;42.848;23.034;2022-10-04T17:09:25;10.50;;;6.17;;
7989;SDS011;4040;42.848;23.034;2022-10-04T17:19:11;8.97;;;6.30;;
7989;SDS011;4040;42.848;23.034;2022-10-04T17:25:19;10.83;;;5.67;;
7989;SDS011;4040;42.848;23.034;2022-10-04T17:31:20;7.57;;;4.80;;
7989;SDS011;4040;42.848;23.034;2022-10-04T17:37:21;12.23;;;9.13;;
7989;SDS011;4040;42.848;23.034;2022-10-04T17:43:19;11.97;;;8.93;;
7989;SDS011;4040;42.848;23.034;2022-10-04T17:49:15;16.03;;;9.57;;
7989;SDS011;4040;42.848;23.034;2022-10-04T17:55:42;49.17;;;32.43;;
7989;SDS011;4040;42.848;23.034;2022-10-04T18:01:36;34.20;;;24.40;;
7989;SDS011;4040;42.848;23.034;2022-10-04T18:07:31;26.67;;;17.53;;
7989;SDS011;4040;42.848;23.034;2022-10-04T18:13:27;44.10;;;28.00;;
7989;SDS011;4040;42.848;23.034;2022-10-04T18:19:30;19.93;;;13.07;;
7989;SDS011;4040;42.848;23.034;2022-10-04T18:25:26;15.27;;;10.93;;
7989;SDS011;4040;42.848;23.034;2022-10-04T18:31:31;16.03;;;7.13;;
7989;SDS011;4040;42.848;23.034;2022-10-04T18:37:28;11.20;;;7.63;;
7989;SDS011;4040;42.848;23.034;2022-10-04T18:43:24;12.63;;;9.07;;
7989;SDS011;4040;42.848;23.034;2022-10-04T18:49:16;19.77;;;9.10;;
7989;SDS011;4040;42.848;23.034;2022-10-04T18:55:19;12.37;;;7.47;;
7989;SDS011;4040;42.848;23.034;2022-10-04T19:01:22;8.70;;;5.20;;
7989;SDS011;4040;42.848;23.034;2022-10-04T19:07:51;8.67;;;4.90;;
7989;SDS011;4040;42.848;23.034;2022-10-04T19:13:48;7.27;;;4.93;;
7989;SDS011;4040;42.848;23.034;2022-10-04T19:19:45;10.83;;;6.70;;
7989;SDS011;4040;42.848;23.034;2022-10-04T19:25:44;6.33;;;4.83;;
7989;SDS011;4040;42.848;23.034;2022-10-04T19:31:40;6.70;;;4.80;;
7989;SDS011;4040;42.848;23.034;2022-10-04T19:37:40;8.73;;;5.23;;
7989;SDS011;4040;42.848;23.034;2022-10-04T19:43:40;7.87;;;5.70;;
7989;SDS011;4040;42.848;23.034;2022-10-04T19:49:42;7.50;;;4.90;;
7989;SDS011;4040;42.848;23.034;2022-10-04T19:55:39;5.77;;;3.60;;
7989;SDS011;4040;42.848;23.034;2022-10-04T20:01:31;4.63;;;3.10;;
7989;SDS011;4040;42.848;23.034;2022-10-04T20:07:22;3.57;;;3.17;;
7989;SDS011;4040;42.848;23.034;2022-10-04T20:13:15;6.10;;;4.10;;
7989;SDS011;4040;42.848;23.034;2022-10-04T20:19:13;9.33;;;5.87;;
7989;SDS011;4040;42.848;23.034;2022-10-04T20:25:06;8.60;;;5.40;;
7989;SDS011;4040;42.848;23.034;2022-10-04T20:30:56;9.77;;;6.40;;
7989;SDS011;4040;42.848;23.034;2022-10-04T20:36:49;11.63;;;5.53;;
7989;SDS011;4040;42.848;23.034;2022-10-04T20:42:40;11.13;;;6.07;;
7989;SDS011;4040;42.848;23.034;2022-10-04T20:48:28;16.83;;;7.47;;
7989;SDS011;4040;42.848;23.034;2022-10-04T20:54:19;8.33;;;4.97;;
7989;SDS011;4040;42.848;23.034;2022-10-04T21:00:17;12.23;;;4.27;;
7989;SDS011;4040;42.848;23.034;2022-10-04T21:06:09;5.93;;;3.63;;
7989;SDS011;4040;42.848;23.034;2022-10-04T21:11:59;4.50;;;2.80;;
7989;SDS011;4040;42.848;23.034;2022-10-04T21:28:30;8.57;;;4.50;;
7989;SDS011;4040;42.848;23.034;2022-10-04T21:34:21;5.77;;;3.77;;
7989;SDS011;4040;42.848;23.034;2022-10-04T21:40:12;6.83;;;4.73;;
7989;SDS011;4040;42.848;23.034;2022-10-04T21:46:01;28.50;;;14.40;;
7989;SDS011;4040;42.848;23.034;2022-10-04T21:51:49;9.17;;;6.60;;
7989;SDS011;4040;42.848;23.034;2022-10-04T21:57:40;10.47;;;7.00;;
7989;SDS011;4040;42.848;23.034;2022-10-04T22:08:33;13.87;;;6.60;;
7989;SDS011;4040;42.848;23.034;2022-10-04T22:14:21;6.03;;;3.70;;
7989;SDS011;4040;42.848;23.034;2022-10-04T22:20:10;8.30;;;4.83;;
7989;SDS011;4040;42.848;23.034;2022-10-04T22:26:00;5.70;;;3.17;;
7989;SDS011;4040;42.848;23.034;2022-10-04T22:31:50;17.97;;;7.40;;
7989;SDS011;4040;42.848;23.034;2022-10-04T22:37:39;5.03;;;3.37;;
7989;SDS011;4040;42.848;23.034;2022-10-04T22:43:30;4.30;;;3.30;;
7989;SDS011;4040;42.848;23.034;2022-10-04T22:49:20;4.67;;;3.20;;
7989;SDS011;4040;42.848;23.034;2022-10-04T22:55:12;3.87;;;3.10;;
7989;SDS011;4040;42.848;23.034;2022-10-04T23:01:10;26.47;;;12.90;;
7989;SDS011;4040;42.848;23.034;2022-10-04T23:07:00;6.53;;;4.13;;
7989;SDS011;4040;42.848;23.034;2022-10-04T23:12:49;11.87;;;5.30;;
7989;SDS011;4040;42.848;23.034;2022-10-04T23:18:49;3.93;;;3.13;;
7989;SDS011;4040;42.848;23.034;2022-10-04T23:24:47;4.80;;;3.30;;
7989;SDS011;4040;42.848;23.034;2022-10-04T23:30:38;3.57;;;3.07;;
7989;SDS011;4040;42.848;23.034;2022-10-04T23:36:28;6.20;;;3.27;;
7989;SDS011;4040;42.848;23.034;2022-10-04T23:42:37;6.73;;;3.87;;
7989;SDS011;4040;42.848;23.034;2022-10-04T23:48:26;3.37;;;2.60;;
7989;SDS011;4040;42.848;23.034;2022-10-04T23:54:19;4.20;;;2.70;;
